sensor_id;sensor_type;location;lat;lon;timestamp;pressure;altitude;pressure_sealevel;temperature;humidity
70437;BME280;57877;39.750;-104.894;2023-10-09T00:01:56;83763.78;;;25.27;10.96
70437;BME280;57877;39.750;-104.894;2023-10-09T00:04:21;83761.93;;;24.90;11.34
70437;BME280;57877;39.750;-104.894;2023-10-09T00:06:46;83764.52;;;24.84;11.59
70437;BME280;57877;39.750;-104.894;2023-10-09T00:09:12;83762.44;;;24.79;12.19
70437;BME280;57877;39.750;-104.894;2023-10-09T00:11:38;83761.11;;;24.37;12.26
70437;BME280;57877;39.750;-104.894;2023-10-09T00:14:04;83762.25;;;24.49;12.24
70437;BME280;57877;39.750;-104.894;2023-10-09T00:16:30;83761.20;;;24.59;12.13
70437;BME280;57877;39.750;-104.894;2023-10-09T00:18:56;83762.05;;;24.40;12.36
70437;BME280;57877;39.750;-104.894;2023-10-09T00:21:22;83759.89;;;24.22;12.55
70437;BME280;57877;39.750;-104.894;2023-10-09T00:23:48;83760.08;;;23.99;12.76
70437;BME280;57877;39.750;-104.894;2023-10-09T00:26:13;83766.38;;;23.47;13.35
70437;BME280;57877;39.750;-104.894;2023-10-09T00:28:39;83765.06;;;22.89;13.62
70437;BME280;57877;39.750;-104.894;2023-10-09T00:31:05;83765.39;;;23.05;13.88
70437;BME280;57877;39.750;-104.894;2023-10-09T00:33:31;83763.88;;;23.19;14.48
70437;BME280;57877;39.750;-104.894;2023-10-09T00:35:57;83763.40;;;22.59;14.77
70437;BME280;57877;39.750;-104.894;2023-10-09T00:38:23;83761.05;;;22.73;14.77
70437;BME280;57877;39.750;-104.894;2023-10-09T00:40:50;83759.64;;;22.35;14.98
70437;BME280;57877;39.750;-104.894;2023-10-09T00:43:15;83761.15;;;22.43;15.27
70437;BME280;57877;39.750;-104.894;2023-10-09T00:45:43;83759.24;;;21.86;16.62
70437;BME280;57877;39.750;-104.894;2023-10-09T00:48:08;83761.50;;;22.06;16.50
70437;BME280;57877;39.750;-104.894;2023-10-09T00:50:33;83760.35;;;22.11;16.20
70437;BME280;57877;39.750;-104.894;2023-10-09T00:53:00;83759.20;;;21.95;16.22
70437;BME280;57877;39.750;-104.894;2023-10-09T00:55:24;83755.89;;;21.27;16.48
70437;BME280;57877;39.750;-104.894;2023-10-09T00:57:51;83759.87;;;21.72;16.43
70437;BME280;57877;39.750;-104.894;2023-10-09T01:00:14;83757.54;;;21.54;17.38
70437;BME280;57877;39.750;-104.894;2023-10-09T01:02:40;83757.89;;;20.90;17.68
70437;BME280;57877;39.750;-104.894;2023-10-09T01:05:06;83758.57;;;21.20;17.67
70437;BME280;57877;39.750;-104.894;2023-10-09T01:07:32;83757.73;;;20.96;17.53
70437;BME280;57877;39.750;-104.894;2023-10-09T01:09:58;83757.17;;;21.08;17.87
70437;BME280;57877;39.750;-104.894;2023-10-09T01:12:24;83755.30;;;20.69;18.07
70437;BME280;57877;39.750;-104.894;2023-10-09T01:14:50;83757.34;;;20.88;18.40
70437;BME280;57877;39.750;-104.894;2023-10-09T01:17:16;83757.56;;;20.65;18.42
70437;BME280;57877;39.750;-104.894;2023-10-09T01:19:42;83758.63;;;20.80;18.48
70437;BME280;57877;39.750;-104.894;2023-10-09T01:22:07;83756.36;;;20.68;18.38
70437;BME280;57877;39.750;-104.894;2023-10-09T01:24:33;83756.30;;;20.56;18.34
70437;BME280;57877;39.750;-104.894;2023-10-09T01:26:59;83759.94;;;20.40;18.99
70437;BME280;57877;39.750;-104.894;2023-10-09T01:29:25;83761.49;;;20.16;19.67
70437;BME280;57877;39.750;-104.894;2023-10-09T01:31:52;83764.88;;;19.55;20.88
70437;BME280;57877;39.750;-104.894;2023-10-09T01:34:18;83766.54;;;19.41;21.24
70437;BME280;57877;39.750;-104.894;2023-10-09T01:36:43;83768.41;;;19.51;21.35
70437;BME280;57877;39.750;-104.894;2023-10-09T01:39:09;83769.80;;;19.43;21.17
70437;BME280;57877;39.750;-104.894;2023-10-09T01:41:35;83770.38;;;19.20;20.99
70437;BME280;57877;39.750;-104.894;2023-10-09T01:44:01;83771.89;;;19.34;20.63
70437;BME280;57877;39.750;-104.894;2023-10-09T01:46:27;83776.46;;;19.27;20.37
70437;BME280;57877;39.750;-104.894;2023-10-09T01:48:53;83776.65;;;19.29;20.06
70437;BME280;57877;39.750;-104.894;2023-10-09T01:51:18;83778.83;;;19.33;19.65
70437;BME280;57877;39.750;-104.894;2023-10-09T01:53:45;83778.82;;;19.11;19.88
70437;BME280;57877;39.750;-104.894;2023-10-09T01:56:11;83780.89;;;19.18;19.55
70437;BME280;57877;39.750;-104.894;2023-10-09T01:58:36;83779.31;;;19.20;19.38
70437;BME280;57877;39.750;-104.894;2023-10-09T02:01:02;83778.84;;;19.17;19.00
70437;BME280;57877;39.750;-104.894;2023-10-09T02:03:28;83779.62;;;19.13;19.20
70437;BME280;57877;39.750;-104.894;2023-10-09T02:05:55;83779.10;;;18.92;19.53
70437;BME280;57877;39.750;-104.894;2023-10-09T02:08:20;83777.73;;;18.84;19.77
70437;BME280;57877;39.750;-104.894;2023-10-09T02:10:46;83778.09;;;19.02;19.69
70437;BME280;57877;39.750;-104.894;2023-10-09T02:13:12;83777.40;;;18.91;19.91
70437;BME280;57877;39.750;-104.894;2023-10-09T02:15:39;83778.74;;;18.55;20.12
70437;BME280;57877;39.750;-104.894;2023-10-09T02:18:05;83780.07;;;18.69;20.17
70437;BME280;57877;39.750;-104.894;2023-10-09T02:20:30;83778.30;;;18.86;20.01
70437;BME280;57877;39.750;-104.894;2023-10-09T02:22:56;83777.83;;;18.73;20.34
70437;BME280;57877;39.750;-104.894;2023-10-09T02:25:24;83776.22;;;18.62;20.69
70437;BME280;57877;39.750;-104.894;2023-10-09T02:27:48;83778.43;;;18.46;20.68
70437;BME280;57877;39.750;-104.894;2023-10-09T02:30:13;83778.86;;;18.19;20.27
70437;BME280;57877;39.750;-104.894;2023-10-09T02:32:39;83781.35;;;18.24;20.09
70437;BME280;57877;39.750;-104.894;2023-10-09T02:35:06;83781.47;;;18.09;19.98
70437;BME280;57877;39.750;-104.894;2023-10-09T02:37:31;83783.20;;;18.07;19.85
70437;BME280;57877;39.750;-104.894;2023-10-09T02:39:57;83785.12;;;18.14;19.84
70437;BME280;57877;39.750;-104.894;2023-10-09T02:42:23;83785.30;;;17.78;18.52
70437;BME280;57877;39.750;-104.894;2023-10-09T02:44:49;83786.21;;;18.29;19.24
70437;BME280;57877;39.750;-104.894;2023-10-09T02:49:41;83791.75;;;18.06;18.20
70437;BME280;57877;39.750;-104.894;2023-10-09T02:52:07;83791.70;;;18.01;18.30
70437;BME280;57877;39.750;-104.894;2023-10-09T02:54:33;83792.63;;;18.20;18.23
70437;BME280;57877;39.750;-104.894;2023-10-09T02:56:59;83792.91;;;17.59;18.60
70437;BME280;57877;39.750;-104.894;2023-10-09T02:59:25;83793.52;;;18.10;18.06
70437;BME280;57877;39.750;-104.894;2023-10-09T03:01:50;83793.74;;;17.77;18.48
70437;BME280;57877;39.750;-104.894;2023-10-09T03:04:15;83794.95;;;17.86;18.23
70437;BME280;57877;39.750;-104.894;2023-10-09T03:06:50;83799.27;;;18.36;18.63
70437;BME280;57877;39.750;-104.894;2023-10-09T03:09:06;83800.44;;;17.43;19.35
70437;BME280;57877;39.750;-104.894;2023-10-09T03:11:31;83799.04;;;18.22;19.76
70437;BME280;57877;39.750;-104.894;2023-10-09T03:13:56;83798.14;;;18.25;19.60
70437;BME280;57877;39.750;-104.894;2023-10-09T03:16:21;83800.89;;;17.62;20.43
70437;BME280;57877;39.750;-104.894;2023-10-09T03:18:48;83800.22;;;17.26;20.33
70437;BME280;57877;39.750;-104.894;2023-10-09T03:21:12;83796.04;;;17.14;20.67
70437;BME280;57877;39.750;-104.894;2023-10-09T03:23:37;83801.02;;;17.26;21.13
70437;BME280;57877;39.750;-104.894;2023-10-09T03:26:02;83798.14;;;17.11;21.33
70437;BME280;57877;39.750;-104.894;2023-10-09T03:28:27;83798.94;;;16.87;21.16
70437;BME280;57877;39.750;-104.894;2023-10-09T03:30:52;83803.39;;;16.63;21.52
70437;BME280;57877;39.750;-104.894;2023-10-09T03:33:18;83799.70;;;16.54;21.82
70437;BME280;57877;39.750;-104.894;2023-10-09T03:35:42;83802.49;;;16.79;21.39
70437;BME280;57877;39.750;-104.894;2023-10-09T03:38:07;83802.59;;;16.66;22.01
70437;BME280;57877;39.750;-104.894;2023-10-09T03:40:32;83805.78;;;16.20;22.03
70437;BME280;57877;39.750;-104.894;2023-10-09T03:42:58;83807.24;;;16.69;21.97
70437;BME280;57877;39.750;-104.894;2023-10-09T03:45:25;83809.17;;;16.99;21.88
70437;BME280;57877;39.750;-104.894;2023-10-09T03:47:52;83803.97;;;16.02;22.03
70437;BME280;57877;39.750;-104.894;2023-10-09T03:50:16;83807.88;;;16.28;22.03
70437;BME280;57877;39.750;-104.894;2023-10-09T03:52:41;83810.38;;;16.47;21.75
70437;BME280;57877;39.750;-104.894;2023-10-09T03:55:08;83809.21;;;16.40;21.87
70437;BME280;57877;39.750;-104.894;2023-10-09T03:57:33;83809.32;;;16.69;21.91
70437;BME280;57877;39.750;-104.894;2023-10-09T03:59:59;83811.15;;;16.68;21.58
70437;BME280;57877;39.750;-104.894;2023-10-09T04:02:25;83813.09;;;16.33;22.81
70437;BME280;57877;39.750;-104.894;2023-10-09T04:04:51;83811.14;;;15.86;22.72
70437;BME280;57877;39.750;-104.894;2023-10-09T04:07:16;83809.50;;;16.31;23.17
70437;BME280;57877;39.750;-104.894;2023-10-09T04:09:41;83804.58;;;16.27;22.61
70437;BME280;57877;39.750;-104.894;2023-10-09T04:12:07;83806.39;;;16.62;23.16
70437;BME280;57877;39.750;-104.894;2023-10-09T04:14:31;83806.78;;;16.49;22.84
70437;BME280;57877;39.750;-104.894;2023-10-09T04:16:56;83810.77;;;16.09;22.62
70437;BME280;57877;39.750;-104.894;2023-10-09T04:19:22;83810.60;;;16.32;22.66
70437;BME280;57877;39.750;-104.894;2023-10-09T04:21:48;83811.91;;;15.85;22.89
70437;BME280;57877;39.750;-104.894;2023-10-09T04:24:14;83807.74;;;16.14;23.09
70437;BME280;57877;39.750;-104.894;2023-10-09T04:26:40;83810.20;;;16.27;23.50
70437;BME280;57877;39.750;-104.894;2023-10-09T04:29:05;83810.82;;;16.24;23.81
70437;BME280;57877;39.750;-104.894;2023-10-09T04:31:30;83807.77;;;16.12;24.05
70437;BME280;57877;39.750;-104.894;2023-10-09T04:33:55;83811.59;;;15.18;25.54
70437;BME280;57877;39.750;-104.894;2023-10-09T04:36:20;83811.96;;;15.20;25.39
70437;BME280;57877;39.750;-104.894;2023-10-09T04:38:45;83811.88;;;15.55;25.24
70437;BME280;57877;39.750;-104.894;2023-10-09T04:41:10;83814.83;;;15.31;25.53
70437;BME280;57877;39.750;-104.894;2023-10-09T04:43:35;83809.58;;;15.20;25.72
70437;BME280;57877;39.750;-104.894;2023-10-09T04:46:00;83814.38;;;15.38;25.86
70437;BME280;57877;39.750;-104.894;2023-10-09T04:48:26;83817.85;;;15.18;25.71
70437;BME280;57877;39.750;-104.894;2023-10-09T04:50:52;83816.58;;;15.36;25.76
70437;BME280;57877;39.750;-104.894;2023-10-09T04:53:18;83814.99;;;15.32;25.88
70437;BME280;57877;39.750;-104.894;2023-10-09T04:55:44;83813.24;;;14.99;26.65
70437;BME280;57877;39.750;-104.894;2023-10-09T04:58:10;83812.78;;;14.09;27.83
70437;BME280;57877;39.750;-104.894;2023-10-09T05:00:36;83815.19;;;14.37;27.69
70437;BME280;57877;39.750;-104.894;2023-10-09T05:03:03;83815.66;;;14.82;27.46
70437;BME280;57877;39.750;-104.894;2023-10-09T05:05:28;83815.45;;;14.59;27.37
70437;BME280;57877;39.750;-104.894;2023-10-09T05:07:52;83814.34;;;14.26;27.44
70437;BME280;57877;39.750;-104.894;2023-10-09T05:10:17;83817.25;;;14.22;27.43
70437;BME280;57877;39.750;-104.894;2023-10-09T05:12:43;83815.94;;;14.46;27.52
70437;BME280;57877;39.750;-104.894;2023-10-09T05:15:09;83817.37;;;14.32;27.29
70437;BME280;57877;39.750;-104.894;2023-10-09T05:17:35;83818.29;;;14.41;27.13
70437;BME280;57877;39.750;-104.894;2023-10-09T05:20:01;83815.78;;;14.19;26.71
70437;BME280;57877;39.750;-104.894;2023-10-09T05:22:27;83816.27;;;13.86;26.55
70437;BME280;57877;39.750;-104.894;2023-10-09T05:24:52;83817.35;;;13.93;26.37
70437;BME280;57877;39.750;-104.894;2023-10-09T05:27:18;83815.76;;;14.15;26.12
70437;BME280;57877;39.750;-104.894;2023-10-09T05:29:43;83813.54;;;13.58;26.20
70437;BME280;57877;39.750;-104.894;2023-10-09T05:32:08;83813.61;;;14.14;26.17
70437;BME280;57877;39.750;-104.894;2023-10-09T05:34:35;83812.39;;;14.05;26.40
70437;BME280;57877;39.750;-104.894;2023-10-09T05:37:00;83811.04;;;13.91;26.31
70437;BME280;57877;39.750;-104.894;2023-10-09T05:39:26;83813.00;;;13.64;26.68
70437;BME280;57877;39.750;-104.894;2023-10-09T05:41:52;83809.13;;;14.02;26.43
70437;BME280;57877;39.750;-104.894;2023-10-09T05:44:19;83809.33;;;14.22;26.43
70437;BME280;57877;39.750;-104.894;2023-10-09T05:46:44;83808.78;;;14.26;26.66
70437;BME280;57877;39.750;-104.894;2023-10-09T05:49:10;83806.48;;;13.62;26.69
70437;BME280;57877;39.750;-104.894;2023-10-09T05:51:36;83803.25;;;14.03;26.92
70437;BME280;57877;39.750;-104.894;2023-10-09T05:54:02;83803.26;;;14.06;26.81
70437;BME280;57877;39.750;-104.894;2023-10-09T05:56:27;83799.74;;;13.47;26.79
70437;BME280;57877;39.750;-104.894;2023-10-09T05:58:54;83798.48;;;13.48;26.99
70437;BME280;57877;39.750;-104.894;2023-10-09T06:01:19;83797.66;;;13.69;26.81
70437;BME280;57877;39.750;-104.894;2023-10-09T06:03:45;83798.76;;;13.78;26.73
70437;BME280;57877;39.750;-104.894;2023-10-09T06:06:11;83799.91;;;13.62;26.78
70437;BME280;57877;39.750;-104.894;2023-10-09T06:08:37;83797.11;;;13.64;26.69
70437;BME280;57877;39.750;-104.894;2023-10-09T06:11:03;83802.07;;;13.55;26.86
70437;BME280;57877;39.750;-104.894;2023-10-09T06:13:29;83799.47;;;13.56;26.97
70437;BME280;57877;39.750;-104.894;2023-10-09T06:15:55;83795.73;;;13.69;27.07
70437;BME280;57877;39.750;-104.894;2023-10-09T06:18:21;83799.20;;;12.59;28.09
70437;BME280;57877;39.750;-104.894;2023-10-09T06:20:47;83800.85;;;13.06;27.68
70437;BME280;57877;39.750;-104.894;2023-10-09T06:23:13;83800.92;;;13.18;27.74
70437;BME280;57877;39.750;-104.894;2023-10-09T06:25:39;83800.31;;;13.11;27.60
70437;BME280;57877;39.750;-104.894;2023-10-09T06:28:05;83802.74;;;13.29;27.52
70437;BME280;57877;39.750;-104.894;2023-10-09T06:30:34;83801.68;;;12.89;27.68
70437;BME280;57877;39.750;-104.894;2023-10-09T06:32:57;83804.31;;;13.16;27.57
70437;BME280;57877;39.750;-104.894;2023-10-09T06:35:24;83805.22;;;12.58;27.88
70437;BME280;57877;39.750;-104.894;2023-10-09T06:37:50;83805.45;;;12.71;28.03
70437;BME280;57877;39.750;-104.894;2023-10-09T06:40:15;83807.25;;;12.28;27.95
70437;BME280;57877;39.750;-104.894;2023-10-09T06:42:42;83808.66;;;12.54;28.13
70437;BME280;57877;39.750;-104.894;2023-10-09T06:45:10;83808.59;;;12.67;27.87
70437;BME280;57877;39.750;-104.894;2023-10-09T06:47:34;83804.89;;;12.44;27.89
70437;BME280;57877;39.750;-104.894;2023-10-09T06:50:00;83806.73;;;12.28;28.25
70437;BME280;57877;39.750;-104.894;2023-10-09T06:52:25;83809.22;;;12.58;28.08
70437;BME280;57877;39.750;-104.894;2023-10-09T06:54:52;83808.42;;;12.78;27.75
70437;BME280;57877;39.750;-104.894;2023-10-09T06:57:18;83810.22;;;12.80;27.52
70437;BME280;57877;39.750;-104.894;2023-10-09T06:59:43;83807.64;;;12.50;27.85
70437;BME280;57877;39.750;-104.894;2023-10-09T07:02:10;83810.48;;;12.89;28.02
70437;BME280;57877;39.750;-104.894;2023-10-09T07:04:36;83810.21;;;12.38;27.70
70437;BME280;57877;39.750;-104.894;2023-10-09T07:07:02;83811.42;;;12.49;28.07
70437;BME280;57877;39.750;-104.894;2023-10-09T07:09:28;83806.66;;;12.63;27.77
70437;BME280;57877;39.750;-104.894;2023-10-09T07:11:54;83806.45;;;12.63;28.09
70437;BME280;57877;39.750;-104.894;2023-10-09T07:14:21;83802.44;;;12.75;27.88
70437;BME280;57877;39.750;-104.894;2023-10-09T07:16:45;83805.74;;;12.36;28.13
70437;BME280;57877;39.750;-104.894;2023-10-09T07:19:11;83810.22;;;12.40;28.10
70437;BME280;57877;39.750;-104.894;2023-10-09T07:21:37;83812.21;;;12.03;28.90
70437;BME280;57877;39.750;-104.894;2023-10-09T07:24:03;83810.79;;;12.02;28.94
70437;BME280;57877;39.750;-104.894;2023-10-09T07:26:29;83810.16;;;12.20;29.07
70437;BME280;57877;39.750;-104.894;2023-10-09T07:28:54;83813.30;;;12.23;29.08
70437;BME280;57877;39.750;-104.894;2023-10-09T07:31:21;83814.21;;;12.05;28.48
70437;BME280;57877;39.750;-104.894;2023-10-09T07:33:46;83816.16;;;11.89;28.40
70437;BME280;57877;39.750;-104.894;2023-10-09T07:36:11;83813.18;;;12.17;28.36
70437;BME280;57877;39.750;-104.894;2023-10-09T07:38:36;83811.94;;;12.15;28.47
70437;BME280;57877;39.750;-104.894;2023-10-09T07:41:02;83812.02;;;12.09;28.76
70437;BME280;57877;39.750;-104.894;2023-10-09T07:43:30;83813.24;;;12.25;28.47
70437;BME280;57877;39.750;-104.894;2023-10-09T07:45:54;83815.35;;;12.05;28.51
70437;BME280;57877;39.750;-104.894;2023-10-09T07:48:21;83815.08;;;11.58;29.50
70437;BME280;57877;39.750;-104.894;2023-10-09T07:50:46;83815.68;;;11.53;30.04
70437;BME280;57877;39.750;-104.894;2023-10-09T07:53:12;83813.71;;;11.72;29.99
70437;BME280;57877;39.750;-104.894;2023-10-09T07:55:40;83810.02;;;11.94;29.92
70437;BME280;57877;39.750;-104.894;2023-10-09T07:58:03;83812.02;;;11.78;30.18
70437;BME280;57877;39.750;-104.894;2023-10-09T08:00:29;83807.03;;;11.08;31.09
70437;BME280;57877;39.750;-104.894;2023-10-09T08:02:55;83806.60;;;11.35;30.79
70437;BME280;57877;39.750;-104.894;2023-10-09T08:05:21;83807.55;;;11.50;30.64
70437;BME280;57877;39.750;-104.894;2023-10-09T08:07:47;83806.34;;;11.55;30.66
70437;BME280;57877;39.750;-104.894;2023-10-09T08:10:13;83806.95;;;10.96;31.20
70437;BME280;57877;39.750;-104.894;2023-10-09T08:12:39;83803.10;;;11.12;30.61
70437;BME280;57877;39.750;-104.894;2023-10-09T08:15:07;83802.03;;;11.22;30.48
70437;BME280;57877;39.750;-104.894;2023-10-09T08:17:31;83800.63;;;11.29;30.70
70437;BME280;57877;39.750;-104.894;2023-10-09T08:19:56;83800.71;;;11.24;30.38
70437;BME280;57877;39.750;-104.894;2023-10-09T08:22:23;83797.13;;;11.57;30.68
70437;BME280;57877;39.750;-104.894;2023-10-09T08:24:47;83795.25;;;11.16;30.70
70437;BME280;57877;39.750;-104.894;2023-10-09T08:27:13;83794.06;;;11.58;30.65
70437;BME280;57877;39.750;-104.894;2023-10-09T08:29:38;83790.21;;;11.27;30.46
70437;BME280;57877;39.750;-104.894;2023-10-09T08:32:04;83783.73;;;10.73;31.10
70437;BME280;57877;39.750;-104.894;2023-10-09T08:34:30;83783.77;;;10.73;31.02
70437;BME280;57877;39.750;-104.894;2023-10-09T08:36:56;83781.80;;;11.04;31.10
70437;BME280;57877;39.750;-104.894;2023-10-09T08:39:21;83779.25;;;10.27;31.83
70437;BME280;57877;39.750;-104.894;2023-10-09T08:41:46;83775.97;;;10.52;32.08
70437;BME280;57877;39.750;-104.894;2023-10-09T08:44:13;83773.96;;;10.75;31.10
70437;BME280;57877;39.750;-104.894;2023-10-09T08:46:38;83778.95;;;11.23;30.83
70437;BME280;57877;39.750;-104.894;2023-10-09T08:49:03;83774.80;;;11.64;30.64
70437;BME280;57877;39.750;-104.894;2023-10-09T08:51:28;83772.16;;;11.22;30.54
70437;BME280;57877;39.750;-104.894;2023-10-09T08:53:56;83770.27;;;11.41;30.64
70437;BME280;57877;39.750;-104.894;2023-10-09T08:56:21;83768.99;;;11.26;30.62
70437;BME280;57877;39.750;-104.894;2023-10-09T08:58:46;83768.16;;;10.90;30.56
70437;BME280;57877;39.750;-104.894;2023-10-09T09:01:17;83762.40;;;10.83;31.00
70437;BME280;57877;39.750;-104.894;2023-10-09T09:03:39;83763.61;;;10.60;31.33
70437;BME280;57877;39.750;-104.894;2023-10-09T09:06:05;83760.31;;;11.02;30.90
70437;BME280;57877;39.750;-104.894;2023-10-09T09:08:32;83761.23;;;10.72;31.26
70437;BME280;57877;39.750;-104.894;2023-10-09T09:10:58;83759.50;;;10.54;31.36
70437;BME280;57877;39.750;-104.894;2023-10-09T09:13:22;83758.43;;;10.02;31.61
70437;BME280;57877;39.750;-104.894;2023-10-09T09:15:48;83755.77;;;10.31;31.26
70437;BME280;57877;39.750;-104.894;2023-10-09T09:18:14;83756.47;;;10.29;31.46
70437;BME280;57877;39.750;-104.894;2023-10-09T09:20:40;83756.94;;;10.39;31.36
70437;BME280;57877;39.750;-104.894;2023-10-09T09:23:10;83757.29;;;10.10;31.67
70437;BME280;57877;39.750;-104.894;2023-10-09T09:25:40;83754.53;;;9.73;31.82
70437;BME280;57877;39.750;-104.894;2023-10-09T09:27:59;83756.00;;;9.93;31.62
70437;BME280;57877;39.750;-104.894;2023-10-09T09:30:26;83752.68;;;9.22;32.61
70437;BME280;57877;39.750;-104.894;2023-10-09T09:32:50;83752.10;;;9.49;32.29
70437;BME280;57877;39.750;-104.894;2023-10-09T09:35:16;83752.83;;;10.32;31.22
70437;BME280;57877;39.750;-104.894;2023-10-09T09:37:42;83753.07;;;10.22;31.29
70437;BME280;57877;39.750;-104.894;2023-10-09T09:40:09;83748.44;;;9.63;31.77
70437;BME280;57877;39.750;-104.894;2023-10-09T09:42:34;83748.20;;;10.27;30.94
70437;BME280;57877;39.750;-104.894;2023-10-09T09:45:02;83747.68;;;10.46;30.79
70437;BME280;57877;39.750;-104.894;2023-10-09T09:47:27;83747.14;;;10.33;30.84
70437;BME280;57877;39.750;-104.894;2023-10-09T09:49:53;83747.83;;;10.11;30.85
70437;BME280;57877;39.750;-104.894;2023-10-09T09:52:23;83749.44;;;9.69;31.58
70437;BME280;57877;39.750;-104.894;2023-10-09T09:54:44;83750.40;;;10.32;31.02
70437;BME280;57877;39.750;-104.894;2023-10-09T09:57:12;83746.59;;;9.73;31.50
70437;BME280;57877;39.750;-104.894;2023-10-09T09:59:39;83747.62;;;10.12;31.31
70437;BME280;57877;39.750;-104.894;2023-10-09T10:02:01;83743.69;;;10.25;31.22
70437;BME280;57877;39.750;-104.894;2023-10-09T10:04:29;83740.81;;;10.38;31.10
70437;BME280;57877;39.750;-104.894;2023-10-09T10:06:53;83744.46;;;10.47;30.87
70437;BME280;57877;39.750;-104.894;2023-10-09T10:11:43;83739.85;;;10.04;31.16
70437;BME280;57877;39.750;-104.894;2023-10-09T10:14:08;83742.08;;;9.58;31.68
70437;BME280;57877;39.750;-104.894;2023-10-09T10:19:02;83742.60;;;9.60;32.05
70437;BME280;57877;39.750;-104.894;2023-10-09T10:21:29;83738.33;;;10.14;31.13
70437;BME280;57877;39.750;-104.894;2023-10-09T10:23:52;83738.73;;;10.04;30.91
70437;BME280;57877;39.750;-104.894;2023-10-09T10:26:19;83736.12;;;9.47;31.54
70437;BME280;57877;39.750;-104.894;2023-10-09T10:28:44;83735.90;;;10.08;30.98
70437;BME280;57877;39.750;-104.894;2023-10-09T10:31:11;83734.21;;;9.85;31.02
70437;BME280;57877;39.750;-104.894;2023-10-09T10:36:03;83735.56;;;9.86;30.80
70437;BME280;57877;39.750;-104.894;2023-10-09T10:38:30;83734.89;;;10.11;30.77
70437;BME280;57877;39.750;-104.894;2023-10-09T10:40:54;83735.94;;;10.11;30.66
70437;BME280;57877;39.750;-104.894;2023-10-09T10:43:20;83733.03;;;9.58;30.78
70437;BME280;57877;39.750;-104.894;2023-10-09T10:45:48;83732.40;;;9.43;31.06
70437;BME280;57877;39.750;-104.894;2023-10-09T10:48:13;83735.69;;;9.35;30.91
70437;BME280;57877;39.750;-104.894;2023-10-09T10:50:39;83733.81;;;9.44;31.16
70437;BME280;57877;39.750;-104.894;2023-10-09T10:53:11;83733.87;;;9.62;31.20
70437;BME280;57877;39.750;-104.894;2023-10-09T10:55:31;83735.92;;;9.33;31.42
70437;BME280;57877;39.750;-104.894;2023-10-09T10:57:57;83737.13;;;9.20;31.60
70437;BME280;57877;39.750;-104.894;2023-10-09T11:00:23;83735.06;;;9.36;31.47
70437;BME280;57877;39.750;-104.894;2023-10-09T11:02:49;83733.52;;;9.66;31.13
70437;BME280;57877;39.750;-104.894;2023-10-09T11:05:14;83735.90;;;9.30;31.87
70437;BME280;57877;39.750;-104.894;2023-10-09T11:07:39;83734.30;;;9.06;31.79
70437;BME280;57877;39.750;-104.894;2023-10-09T11:10:05;83734.06;;;9.05;31.88
70437;BME280;57877;39.750;-104.894;2023-10-09T11:12:30;83738.92;;;9.07;31.88
70437;BME280;57877;39.750;-104.894;2023-10-09T11:14:55;83736.08;;;8.83;32.13
70437;BME280;57877;39.750;-104.894;2023-10-09T11:17:21;83734.00;;;8.95;32.20
70437;BME280;57877;39.750;-104.894;2023-10-09T11:19:47;83733.77;;;8.90;31.80
70437;BME280;57877;39.750;-104.894;2023-10-09T11:22:12;83730.88;;;8.72;32.47
70437;BME280;57877;39.750;-104.894;2023-10-09T11:24:38;83729.46;;;8.99;31.55
70437;BME280;57877;39.750;-104.894;2023-10-09T11:27:06;83729.18;;;9.62;30.90
70437;BME280;57877;39.750;-104.894;2023-10-09T11:29:30;83730.04;;;9.12;31.24
70437;BME280;57877;39.750;-104.894;2023-10-09T11:32:01;83727.25;;;9.71;30.84
70437;BME280;57877;39.750;-104.894;2023-10-09T11:34:22;83731.36;;;9.12;31.03
70437;BME280;57877;39.750;-104.894;2023-10-09T11:36:48;83727.34;;;8.61;31.68
70437;BME280;57877;39.750;-104.894;2023-10-09T11:39:23;83728.19;;;8.75;31.48
70437;BME280;57877;39.750;-104.894;2023-10-09T11:41:40;83724.14;;;8.85;31.62
70437;BME280;57877;39.750;-104.894;2023-10-09T11:44:06;83724.25;;;8.57;31.76
70437;BME280;57877;39.750;-104.894;2023-10-09T11:46:32;83723.20;;;8.36;32.37
70437;BME280;57877;39.750;-104.894;2023-10-09T11:49:04;83726.59;;;8.68;31.89
70437;BME280;57877;39.750;-104.894;2023-10-09T11:51:23;83726.09;;;8.28;32.32
70437;BME280;57877;39.750;-104.894;2023-10-09T11:53:49;83726.08;;;8.47;32.08
70437;BME280;57877;39.750;-104.894;2023-10-09T11:56:15;83729.18;;;8.80;31.61
70437;BME280;57877;39.750;-104.894;2023-10-09T11:58:41;83728.62;;;8.14;32.44
70437;BME280;57877;39.750;-104.894;2023-10-09T12:01:12;83729.20;;;8.35;32.08
70437;BME280;57877;39.750;-104.894;2023-10-09T12:03:33;83728.86;;;8.36;31.47
70437;BME280;57877;39.750;-104.894;2023-10-09T12:06:00;83727.03;;;8.03;31.97
70437;BME280;57877;39.750;-104.894;2023-10-09T12:08:25;83727.04;;;8.40;31.82
70437;BME280;57877;39.750;-104.894;2023-10-09T12:10:51;83726.85;;;8.45;31.59
70437;BME280;57877;39.750;-104.894;2023-10-09T12:13:17;83725.27;;;8.51;31.92
70437;BME280;57877;39.750;-104.894;2023-10-09T12:15:43;83723.54;;;8.56;31.51
70437;BME280;57877;39.750;-104.894;2023-10-09T12:18:09;83725.04;;;8.39;31.28
70437;BME280;57877;39.750;-104.894;2023-10-09T12:20:36;83722.66;;;9.00;30.79
70437;BME280;57877;39.750;-104.894;2023-10-09T12:23:01;83718.01;;;8.25;31.55
70437;BME280;57877;39.750;-104.894;2023-10-09T12:25:26;83719.50;;;8.55;31.14
70437;BME280;57877;39.750;-104.894;2023-10-09T12:27:51;83719.68;;;7.87;31.60
70437;BME280;57877;39.750;-104.894;2023-10-09T12:30:17;83720.66;;;8.60;31.13
70437;BME280;57877;39.750;-104.894;2023-10-09T12:32:43;83719.29;;;8.45;31.09
70437;BME280;57877;39.750;-104.894;2023-10-09T12:35:08;83715.79;;;8.26;31.58